createdAt,value
2022-12-09T00:01:38.056Z,100806.19
2022-12-09T00:04:04.998Z,100799.38
2022-12-09T00:06:33.528Z,100797.72
2022-12-09T00:09:00.459Z,100788.84
2022-12-09T00:11:27.501Z,100790.56
2022-12-09T00:13:56.811Z,100796.03
2022-12-09T00:16:24.225Z,100799.31
2022-12-09T00:18:52.389Z,100800.16
2022-12-09T00:21:23.281Z,100802.06
2022-12-09T00:23:51.324Z,100799.31
2022-12-09T00:26:19.678Z,100803.94
2022-12-09T00:28:47.060Z,100788.78
2022-12-09T00:31:20.596Z,100793.38
2022-12-09T00:33:47.824Z,100789.53
2022-12-09T00:36:18.071Z,100792.06
2022-12-09T00:38:45.287Z,100791.69
2022-12-09T00:41:13.130Z,100787.44
2022-12-09T00:43:40.407Z,100798.34
2022-12-09T00:46:07.225Z,100797.06
2022-12-09T00:48:34.825Z,100806.09
2022-12-09T00:51:02.293Z,100804.56
2022-12-09T00:53:29.402Z,100810.91
2022-12-09T00:55:56.399Z,100803.06
2022-12-09T00:58:23.969Z,100804.13
2022-12-09T01:00:51.410Z,100801.41
2022-12-09T01:03:18.629Z,100794.22
2022-12-09T01:05:46.102Z,100797.31
2022-12-09T01:08:13.894Z,100802.78
2022-12-09T01:10:42.117Z,100803.81
2022-12-09T01:13:09.084Z,100792.22
2022-12-09T01:15:37.477Z,100791.41
2022-12-09T01:18:05.671Z,100792.59
2022-12-09T01:20:33.714Z,100799.78
2022-12-09T01:23:01.758Z,100798.44
2022-12-09T01:25:28.492Z,100805.63
2022-12-09T01:27:55.180Z,100802.22
2022-12-09T01:30:22.115Z,100804.28
2022-12-09T01:32:49.283Z,100803.44
2022-12-09T01:35:16.120Z,100808.06
2022-12-09T01:37:43.148Z,100813.50
2022-12-09T01:40:15.520Z,100810.28
2022-12-09T01:42:42.476Z,100812.19
2022-12-09T01:45:30.496Z,100810.47
2022-12-09T01:48:03.810Z,100807.13
2022-12-09T01:50:31.884Z,100816.31
2022-12-09T01:52:58.803Z,100821.78
2022-12-09T01:55:27.239Z,100819.22
2022-12-09T01:57:54.184Z,100816.69
2022-12-09T02:00:21.760Z,100814.16
2022-12-09T02:02:52.755Z,100820.47
2022-12-09T02:05:22.091Z,100814.16
2022-12-09T02:07:54.405Z,100802.06
2022-12-09T02:10:22.068Z,100806.47
2022-12-09T02:13:28.603Z,100801.03
2022-12-09T02:15:59.153Z,100805.84
2022-12-09T02:18:42.741Z,100810.44
2022-12-09T02:21:19.124Z,100798.66
2022-12-09T02:24:28.825Z,100799.72
2022-12-09T02:27:08.214Z,100791.88
2022-12-09T02:29:52.911Z,100797.34
2022-12-09T02:32:26.045Z,100791.22
2022-12-09T02:35:09.515Z,100783.22
2022-12-09T02:37:44.661Z,100782.75
2022-12-09T02:40:20.219Z,100786.97
2022-12-09T02:42:48.695Z,100791.78
2022-12-09T02:45:18.124Z,100783.94
2022-12-09T02:47:51.960Z,100787.53
2022-12-09T02:50:23.981Z,100790.94
2022-12-09T02:52:52.131Z,100787.53
2022-12-09T02:55:21.041Z,100782.63
2022-12-09T02:57:53.557Z,100781.59
2022-12-09T03:00:21.687Z,100782.81
2022-12-09T03:02:51.532Z,100776.69
2022-12-09T03:05:34.104Z,100779.22
2022-12-09T03:08:22.565Z,100777.72
2022-12-09T03:11:01.211Z,100782.50
2022-12-09T03:13:53.394Z,100778.78
2022-12-09T03:16:27.274Z,100766.50
2022-12-09T03:19:17.468Z,100771.59
2022-12-09T03:21:47.574Z,100766.50
2022-12-09T03:24:21.071Z,100765.00
2022-12-09T03:26:50.320Z,100763.97
2022-12-09T03:29:21.229Z,100758.91
2022-12-09T03:31:50.981Z,100760.78
2022-12-09T03:34:22.994Z,100760.78
2022-12-09T03:36:53.124Z,100758.06
2022-12-09T03:39:25.385Z,100756.75
2022-12-09T03:41:57.537Z,100760.09
2022-12-09T03:44:38.331Z,100751.28
2022-12-09T03:47:06.918Z,100758.44
2022-12-09T03:49:34.365Z,100747.03
2022-12-09T03:52:17.405Z,100753.34
2022-12-09T03:54:47.224Z,100748.25
2022-12-09T03:57:19.104Z,100741.94
2022-12-09T03:59:55.346Z,100745.53
2022-12-09T04:02:22.688Z,100740.25
2022-12-09T04:04:49.659Z,100733.09
2022-12-09T04:07:17.582Z,100738.19
2022-12-09T04:09:44.818Z,100738.38
2022-12-09T04:12:11.723Z,100736.03
2022-12-09T04:14:39.264Z,100736.56
2022-12-09T04:17:06.055Z,100747.31
2022-12-09T04:19:32.797Z,100740.50
2022-12-09T04:22:00.132Z,100740.31
2022-12-09T04:24:26.954Z,100740.31
2022-12-09T04:26:53.803Z,100749.34
2022-12-09T04:29:20.594Z,100744.25
2022-12-09T04:31:47.893Z,100737.94
2022-12-09T04:34:14.891Z,100739.19
2022-12-09T04:36:41.731Z,100737.94
2022-12-09T04:39:08.404Z,100740.88
2022-12-09T04:41:35.428Z,100735.41
2022-12-09T04:44:02.524Z,100735.41
2022-12-09T04:46:29.365Z,100738.13
2022-12-09T04:48:56.321Z,100730.31
2022-12-09T04:51:23.025Z,100738.13
2022-12-09T04:53:50.039Z,100742.41
2022-12-09T04:56:21.629Z,100742.59
2022-12-09T04:58:50.129Z,100747.66
2022-12-09T05:01:24.779Z,100745.59
2022-12-09T05:03:55.541Z,100751.03
2022-12-09T05:06:23.602Z,100743.53
2022-12-09T05:08:51.339Z,100738.44
2022-12-09T05:11:20.100Z,100740.81
2022-12-09T05:13:47.334Z,100742.50
2022-12-09T05:16:17.610Z,100759.53
2022-12-09T05:18:45.995Z,100761.59
2022-12-09T05:21:17.319Z,100750.66
2022-12-09T05:23:44.449Z,100748.63
2022-12-09T05:26:14.015Z,100745.22
2022-12-09T05:28:41.017Z,100753.72
2022-12-09T05:31:11.831Z,100745.72
2022-12-09T05:33:39.704Z,100753.72
2022-12-09T05:36:11.811Z,100749.75
2022-12-09T05:38:39.210Z,100749.94
2022-12-09T05:41:06.675Z,100731.50
2022-12-09T05:43:34.575Z,100738.00
2022-12-09T05:46:01.886Z,100734.91
2022-12-09T05:48:29.450Z,100739.50
2022-12-09T05:51:22.581Z,100735.75
2022-12-09T05:53:49.871Z,100736.59
2022-12-09T05:56:18.731Z,100726.72
2022-12-09T05:58:46.305Z,100727.38
2022-12-09T06:01:13.789Z,100727.38
2022-12-09T06:03:40.943Z,100726.19
2022-12-09T06:06:11.446Z,100736.03
2022-12-09T06:08:39.296Z,100736.03
2022-12-09T06:11:11.210Z,100732.47
2022-12-09T06:13:38.299Z,100735.00
2022-12-09T06:16:06.895Z,100732.47
2022-12-09T06:18:33.888Z,100729.53
2022-12-09T06:21:06.254Z,100730.41
2022-12-09T06:23:36.031Z,100722.84
2022-12-09T06:26:03.664Z,100730.03
2022-12-09T06:28:30.789Z,100722.84
2022-12-09T06:30:58.600Z,100723.91
2022-12-09T06:33:53.618Z,100718.06
2022-12-09T06:36:14.554Z,100715.72
2022-12-09T06:38:41.950Z,100720.63
2022-12-09T06:41:10.509Z,100718.75
2022-12-09T06:43:37.806Z,100714.13
2022-12-09T06:46:13.028Z,100718.56
2022-12-09T06:48:40.121Z,100709.16
2022-12-09T06:51:07.505Z,100714.59
2022-12-09T06:53:34.803Z,100717.16
2022-12-09T06:56:12.166Z,100717.81
2022-12-09T06:58:41.323Z,100713.56
2022-12-09T07:01:14.995Z,100720.53
2022-12-09T07:03:44.764Z,100712.53
2022-12-09T07:06:29.056Z,100718.66
2022-12-09T07:08:59.115Z,100720.34
2022-12-09T07:11:26.546Z,100723.28
2022-12-09T07:13:53.540Z,100732.78
2022-12-09T07:16:20.985Z,100725.81
2022-12-09T07:18:47.983Z,100719.31
2022-12-09T07:21:18.133Z,100722.91
2022-12-09T07:23:45.566Z,100721.00
2022-12-09T07:26:12.640Z,100728.19
2022-12-09T07:28:42.716Z,100721.00
2022-12-09T07:31:22.392Z,100733.44
2022-12-09T07:33:50.238Z,100734.47
2022-12-09T07:36:21.335Z,100737.84
2022-12-09T07:38:49.695Z,100741.63
2022-12-09T07:41:19.542Z,100734.28
2022-12-09T07:43:47.021Z,100745.88
2022-12-09T07:46:16.469Z,100744.19
2022-12-09T07:48:43.572Z,100741.44
2022-12-09T07:51:10.825Z,100743.81
2022-12-09T07:53:38.559Z,100753.50
2022-12-09T07:56:08.641Z,100756.03
2022-12-09T07:58:36.351Z,100765.91
2022-12-09T08:01:10.917Z,100764.03
2022-12-09T08:03:38.380Z,100764.03
2022-12-09T08:06:06.775Z,100761.13
2022-12-09T08:08:34.219Z,100755.66
2022-12-09T08:11:13.757Z,100751.88
2022-12-09T08:13:43.911Z,100758.06
2022-12-09T08:16:13.594Z,100767.75
2022-12-09T08:18:42.052Z,100764.19
2022-12-09T08:21:16.754Z,100763.81
2022-12-09T08:23:44.153Z,100758.72
2022-12-09T08:26:13.011Z,100758.34
2022-12-09T08:28:41.242Z,100760.03
2022-12-09T08:31:10.828Z,100766.16
2022-12-09T08:33:38.276Z,100763.44
2022-12-09T08:36:12.340Z,100765.13
2022-12-09T08:38:39.569Z,100771.63
2022-12-09T08:41:18.242Z,100786.59
2022-12-09T08:43:46.314Z,100755.88
2022-12-09T08:46:13.903Z,100759.28
2022-12-09T08:48:42.651Z,100757.22
2022-12-09T08:51:11.338Z,100755.13
2022-12-09T08:53:38.443Z,100753.25
2022-12-09T08:56:10.268Z,100753.25
2022-12-09T08:58:37.487Z,100751.38
2022-12-09T09:01:04.987Z,100757.66
2022-12-09T09:03:32.590Z,100758.91
2022-12-09T09:06:09.490Z,100769.47
2022-12-09T09:08:38.937Z,100772.47
2022-12-09T09:11:11.514Z,100767.22
2022-12-09T09:13:42.905Z,100774.16
2022-12-09T09:16:12.600Z,100762.38
2022-12-09T09:18:40.160Z,100767.47
2022-12-09T09:21:09.109Z,100762.88
2022-12-09T09:23:36.058Z,100769.00
2022-12-09T09:26:09.535Z,100770.88
2022-12-09T09:28:38.542Z,100776.53
2022-12-09T09:31:07.512Z,100782.47
2022-12-09T09:33:34.961Z,100778.69
2022-12-09T09:36:09.694Z,100773.03
2022-12-09T09:38:38.520Z,100781.03
2022-12-09T09:41:20.497Z,100778.97
2022-12-09T09:43:47.959Z,100775.56
2022-12-09T09:46:37.304Z,100778.78
2022-12-09T09:49:08.482Z,100780.84
2022-12-09T09:51:35.845Z,100776.88
2022-12-09T09:54:08.451Z,100771.59
2022-12-09T09:56:43.767Z,100771.59
2022-12-09T09:59:19.593Z,100781.16
2022-12-09T10:01:57.162Z,100771.22
2022-12-09T10:04:52.773Z,100778.41
2022-12-09T10:07:49.334Z,100780.75
2022-12-09T10:10:31.739Z,100777.38
2022-12-09T10:13:37.963Z,100762.59
2022-12-09T10:16:43.639Z,100772.38
2022-12-09T10:19:29.233Z,100773.22
2022-12-09T10:21:59.240Z,100767.75
2022-12-09T10:24:34.192Z,100767.38
2022-12-09T10:27:23.272Z,100770.94
2022-12-09T10:30:10.681Z,100764.25
2022-12-09T10:32:39.506Z,100768.69
2022-12-09T10:35:20.818Z,100764.91
2022-12-09T10:37:49.320Z,100770.88
2022-12-09T10:40:24.876Z,100767.28
2022-12-09T10:43:16.064Z,100762.84
2022-12-09T10:48:48.923Z,100770.47
2022-12-09T10:51:26.216Z,100774.91
2022-12-09T10:54:00.041Z,100777.63
2022-12-09T10:56:30.029Z,100782.25
2022-12-09T10:59:29.994Z,100779.97
2022-12-09T11:02:02.695Z,100777.25
2022-12-09T11:04:32.049Z,100769.06
2022-12-09T11:07:03.013Z,100769.91
2022-12-09T11:09:33.406Z,100767.19
2022-12-09T11:12:02.252Z,100774.31
2022-12-09T11:14:40.708Z,100758.78
2022-12-09T11:17:20.339Z,100762.34
2022-12-09T11:19:53.289Z,100753.31
2022-12-09T11:22:39.613Z,100759.22
2022-12-09T11:25:13.373Z,100760.91
2022-12-09T11:28:05.417Z,100754.63
2022-12-09T11:30:38.809Z,100756.69
2022-12-09T11:33:14.315Z,100760.09
2022-12-09T11:35:44.179Z,100756.31
2022-12-09T11:38:30.336Z,100752.53
2022-12-09T11:41:13.213Z,100749.97
2022-12-09T11:43:44.568Z,100757.81
2022-12-09T11:46:14.153Z,100751.31
2022-12-09T11:48:46.979Z,100753.00
2022-12-09T11:51:41.749Z,100749.22
2022-12-09T11:54:18.226Z,100737.28
2022-12-09T11:56:45.330Z,100726.72
2022-12-09T11:59:21.156Z,100740.63
2022-12-09T12:01:52.140Z,100730.75
2022-12-09T12:04:26.646Z,100731.22
2022-12-09T12:07:23.781Z,100728.69
2022-12-09T12:09:56.237Z,100725.75
2022-12-09T12:12:28.805Z,100734.59
2022-12-09T12:14:59.523Z,100738.19
2022-12-09T12:17:34.720Z,100729.31
2022-12-09T12:20:02.469Z,100731.66
2022-12-09T12:22:36.952Z,100718.00
2022-12-09T12:25:25.732Z,100726.66
2022-12-09T12:28:21.369Z,100720.34
2022-12-09T12:30:54.133Z,100719.13
2022-12-09T12:36:50.318Z,100716.19
2022-12-09T12:39:35.085Z,100713.47
2022-12-09T12:42:26.550Z,100720.63
2022-12-09T12:45:37.129Z,100708.63
2022-12-09T12:48:17.221Z,100716.84
2022-12-09T12:51:05.704Z,100714.97
2022-12-09T12:53:32.385Z,100712.03
2022-12-09T12:56:08.064Z,100701.94
2022-12-09T12:58:57.839Z,100697.31
2022-12-09T13:01:32.820Z,100693.56
2022-12-09T13:04:07.805Z,100690.81
2022-12-09T13:06:41.487Z,100689.78
2022-12-09T13:09:23.038Z,100695.22
2022-12-09T13:11:52.568Z,100692.31
2022-12-09T13:14:25.818Z,100694.19
2022-12-09T13:16:53.124Z,100692.31
2022-12-09T13:19:26.564Z,100696.53
2022-12-09T13:21:53.353Z,100692.78
2022-12-09T13:24:31.447Z,100696.34
2022-12-09T13:27:19.920Z,100688.13
2022-12-09T13:30:22.997Z,100679.72
2022-12-09T13:32:58.237Z,100683.53
2022-12-09T13:35:29.541Z,100682.28
2022-12-09T13:37:58.224Z,100678.50
2022-12-09T13:40:24.827Z,100681.88
2022-12-09T13:43:03.785Z,100675.97
2022-12-09T13:45:36.511Z,100673.88
2022-12-09T13:48:25.731Z,100679.34
2022-12-09T13:50:54.300Z,100689.06
2022-12-09T13:53:24.590Z,100681.06
2022-12-09T13:56:09.722Z,100691.59
2022-12-09T13:58:48.183Z,100690.75
2022-12-09T14:01:22.052Z,100686.13
2022-12-09T14:04:06.867Z,100682.34
2022-12-09T14:06:45.868Z,100687.81
2022-12-09T14:09:54.340Z,100682.34
2022-12-09T14:12:27.073Z,100685.06
2022-12-09T14:14:55.877Z,100683.19
2022-12-09T14:17:25.256Z,100682.34
2022-12-09T14:20:03.919Z,100689.69
2022-12-09T14:22:30.551Z,100690.75
2022-12-09T14:24:59.209Z,100682.72
2022-12-09T14:27:30.998Z,100671.78
2022-12-09T14:30:16.279Z,100682.06
2022-12-09T14:32:57.088Z,100678.50
2022-12-09T14:35:46.544Z,100682.72
2022-12-09T14:38:25.198Z,100678.13
2022-12-09T14:41:20.756Z,100677.25
2022-12-09T14:44:05.658Z,100685.28
2022-12-09T14:46:35.241Z,100679.47
2022-12-09T14:49:04.494Z,100678.16
2022-12-09T14:51:37.743Z,100672.25
2022-12-09T14:54:16.039Z,100678.56
2022-12-09T14:56:48.365Z,100672.66
2022-12-09T14:59:19.965Z,100689.50
2022-12-09T15:01:50.930Z,100683.19
2022-12-09T15:04:36.199Z,100682.34
2022-12-09T15:07:25.179Z,100681.28
2022-12-09T15:09:51.807Z,100680.66
2022-12-09T15:12:21.559Z,100679.59
2022-12-09T15:15:02.737Z,100683.41
2022-12-09T15:17:40.101Z,100686.13
2022-12-09T15:20:07.828Z,100676.00
2022-12-09T15:22:34.556Z,100673.47
2022-12-09T15:25:03.151Z,100677.25
2022-12-09T15:27:30.292Z,100688.66
2022-12-09T15:29:56.932Z,100686.13
2022-12-09T15:32:26.693Z,100690.53
2022-12-09T15:34:54.514Z,100685.28
2022-12-09T15:37:28.705Z,100686.53
2022-12-09T15:40:02.496Z,100693.69
2022-12-09T15:42:33.829Z,100699.13
2022-12-09T15:45:03.476Z,100710.09
2022-12-09T15:47:33.808Z,100704.63
2022-12-09T15:50:18.055Z,100716.59
2022-12-09T15:52:51.937Z,100713.88
2022-12-09T15:55:23.793Z,100717.63
2022-12-09T15:57:53.877Z,100718.69
2022-12-09T16:00:20.894Z,100724.16
2022-12-09T16:02:49.608Z,100718.88
2022-12-09T16:05:23.562Z,100719.72
2022-12-09T16:07:59.571Z,100722.25
2022-12-09T16:10:27.110Z,100718.88
2022-12-09T16:13:15.764Z,100717.00
2022-12-09T16:15:47.939Z,100715.09
2022-12-09T16:18:26.221Z,100714.25
2022-12-09T16:21:13.101Z,100721.41
2022-12-09T16:23:40.078Z,100710.84
2022-12-09T16:26:07.608Z,100719.94
2022-12-09T16:28:35.086Z,100720.13
2022-12-09T16:31:15.577Z,100717.38
2022-12-09T16:33:48.083Z,100716.91
2022-12-09T16:36:19.265Z,100714.19
2022-12-09T16:39:04.414Z,100717.09
2022-12-09T16:41:50.914Z,100720.91
2022-12-09T16:44:26.825Z,100719.19
2022-12-09T16:47:09.299Z,100720.91
2022-12-09T16:49:36.032Z,100714.56
2022-12-09T16:52:02.627Z,100713.53
2022-12-09T16:54:29.381Z,100716.44
2022-12-09T16:56:57.039Z,100713.72
2022-12-09T16:59:23.810Z,100715.44
2022-12-09T17:01:50.696Z,100713.72
2022-12-09T17:04:22.465Z,100722.56
2022-12-09T17:06:49.171Z,100722.56
2022-12-09T17:09:16.075Z,100724.66
2022-12-09T17:11:48.374Z,100714.75
2022-12-09T17:14:15.891Z,100725.50
2022-12-09T17:16:42.883Z,100730.13
2022-12-09T17:19:09.529Z,100738.97
2022-12-09T17:21:36.229Z,100729.09
2022-12-09T17:24:02.929Z,100724.66
2022-12-09T17:26:29.559Z,100729.09
2022-12-09T17:29:01.451Z,100724.66
2022-12-09T17:31:29.019Z,100722.78
2022-12-09T17:33:58.764Z,100728.03
2022-12-09T17:36:25.376Z,100733.50
2022-12-09T17:38:52.009Z,100727.19
2022-12-09T17:41:23.424Z,100722.78
2022-12-09T17:43:51.146Z,100723.81
2022-12-09T17:46:17.884Z,100728.44
2022-12-09T17:48:44.734Z,100732.66
2022-12-09T17:51:18.018Z,100721.91
2022-12-09T17:53:45.483Z,100727.38
2022-12-09T17:56:17.702Z,100729.28
2022-12-09T17:58:44.638Z,100721.91
2022-12-09T18:01:21.698Z,100720.03
2022-12-09T18:03:57.295Z,100735.59
2022-12-09T18:06:27.489Z,100737.31
2022-12-09T18:08:54.765Z,100732.84
2022-12-09T18:11:22.548Z,100731.81
2022-12-09T18:13:50.170Z,100736.63
2022-12-09T18:16:17.352Z,100737.94
2022-12-09T18:18:44.447Z,100737.31
2022-12-09T18:21:15.915Z,100739.84
2022-12-09T18:23:43.600Z,100732.66
2022-12-09T18:26:13.365Z,100735.19
2022-12-09T18:28:40.480Z,100730.78
2022-12-09T18:31:09.920Z,100743.22
2022-12-09T18:33:38.819Z,100744.91
2022-12-09T18:36:10.894Z,100742.38
2022-12-09T18:38:38.489Z,100751.22
2022-12-09T18:41:10.511Z,100752.25
2022-12-09T18:43:39.547Z,100754.59
2022-12-09T18:46:21.357Z,100757.53
2022-12-09T18:49:07.768Z,100760.09
2022-12-09T18:51:34.896Z,100767.22
2022-12-09T18:54:02.651Z,100770.81
2022-12-09T18:56:29.663Z,100769.97
2022-12-09T18:59:06.633Z,100767.22
2022-12-09T19:01:39.044Z,100772.69
2022-12-09T19:04:07.413Z,100775.25
2022-12-09T19:06:39.682Z,100776.09
2022-12-09T19:09:15.496Z,100775.06
2022-12-09T19:11:45.289Z,100779.69
2022-12-09T19:14:14.090Z,100787.72
2022-12-09T19:16:41.566Z,100778.84
2022-12-09T19:19:10.425Z,100779.50
2022-12-09T19:21:37.660Z,100777.78
2022-12-09T19:24:04.651Z,100781.19
2022-12-09T19:26:33.319Z,100779.50
2022-12-09T19:29:04.191Z,100783.91
2022-12-09T19:31:33.578Z,100781.84
2022-12-09T19:34:03.754Z,100780.13
2022-12-09T19:36:34.002Z,100780.13
2022-12-09T19:39:02.524Z,100782.88
2022-12-09T19:41:29.403Z,100787.13
2022-12-09T19:43:57.452Z,100783.53
2022-12-09T19:46:24.581Z,100779.13
2022-12-09T19:48:51.296Z,100784.59
2022-12-09T19:51:19.250Z,100787.13
2022-12-09T19:53:47.034Z,100790.88
2022-12-09T19:56:16.227Z,100795.97
2022-12-09T19:58:43.976Z,100794.28
2022-12-09T20:01:16.872Z,100797.88
2022-12-09T20:03:45.466Z,100799.56
2022-12-09T20:06:16.100Z,100797.22
2022-12-09T20:08:43.311Z,100798.50
2022-12-09T20:11:14.048Z,100802.28
2022-12-09T20:13:41.049Z,100797.88
2022-12-09T20:16:13.720Z,100796.81
2022-12-09T20:18:41.155Z,100792.41
2022-12-09T20:21:10.612Z,100802.09
2022-12-09T20:23:38.874Z,100800.59
2022-12-09T20:26:09.918Z,100801.03
2022-12-09T20:28:38.882Z,100803.97
2022-12-09T20:31:13.689Z,100800.22
2022-12-09T20:33:40.732Z,100799.56
2022-12-09T20:36:17.964Z,100801.91
2022-12-09T20:38:48.845Z,100798.50
2022-12-09T20:41:16.159Z,100797.88
2022-12-09T20:43:45.271Z,100813.50
2022-12-09T20:46:15.413Z,100798.66
2022-12-09T20:48:43.094Z,100814.53
2022-12-09T20:51:14.943Z,100809.06
2022-12-09T20:53:43.652Z,100809.91
2022-12-09T20:56:11.291Z,100811.97
2022-12-09T20:58:38.807Z,100808.03
2022-12-09T21:01:11.886Z,100817.06
2022-12-09T21:03:39.609Z,100815.19
2022-12-09T21:06:06.980Z,100810.78
2022-12-09T21:08:34.186Z,100825.28
2022-12-09T21:11:13.386Z,100825.09
2022-12-09T21:13:43.143Z,100820.66
2022-12-09T21:16:21.827Z,100824.44
2022-12-09T21:18:50.209Z,100819.81
2022-12-09T21:21:18.544Z,100822.34
2022-12-09T21:23:45.802Z,100833.28
2022-12-09T21:26:14.962Z,100826.13
2022-12-09T21:28:42.815Z,100820.66
2022-12-09T21:31:12.097Z,100817.94
2022-12-09T21:33:39.565Z,100806.97
2022-12-09T21:36:08.462Z,100816.25
2022-12-09T21:38:36.237Z,100819.63
2022-12-09T21:41:04.604Z,100819.63
2022-12-09T21:43:32.290Z,100824.66
2022-12-09T21:46:02.497Z,100826.53
2022-12-09T21:48:29.280Z,100825.84
2022-12-09T21:50:57.486Z,100827.97
2022-12-09T21:53:24.418Z,100827.09
2022-12-09T21:55:51.900Z,100828.16
2022-12-09T21:58:19.194Z,100824.09
2022-12-09T22:00:46.265Z,100829.75
2022-12-09T22:03:13.427Z,100812.63
2022-12-09T22:05:40.097Z,100830.78
2022-12-09T22:08:06.798Z,100830.97
2022-12-09T22:10:37.833Z,100826.09
2022-12-09T22:13:04.582Z,100829.50
2022-12-09T22:15:31.261Z,100831.56
2022-12-09T22:17:57.935Z,100840.81
2022-12-09T22:23:12.466Z,100836.94
2022-12-09T22:25:39.899Z,100845.31
2022-12-09T22:28:06.618Z,100845.13
2022-12-09T22:30:36.364Z,100844.50
2022-12-09T22:33:03.724Z,100841.97
2022-12-09T22:35:30.465Z,100844.03
2022-12-09T22:37:59.244Z,100844.69
2022-12-09T22:40:26.094Z,100841.66
2022-12-09T22:42:52.781Z,100849.00
2022-12-09T22:45:19.389Z,100841.00
2022-12-09T22:47:45.996Z,100843.09
2022-12-09T22:50:13.154Z,100847.91
2022-12-09T22:52:39.955Z,100849.22
2022-12-09T22:55:07.013Z,100848.56
2022-12-09T22:57:33.701Z,100849.78
2022-12-09T23:00:00.355Z,100846.84
2022-12-09T23:02:27.080Z,100855.63
2022-12-09T23:04:53.851Z,100850.63
2022-12-09T23:07:20.490Z,100847.59
2022-12-09T23:09:47.100Z,100852.25
2022-12-09T23:12:14.054Z,100851.38
2022-12-09T23:14:40.726Z,100853.94
2022-12-09T23:17:07.329Z,100855.81
2022-12-09T23:19:34.091Z,100855.16
2022-12-09T23:22:00.702Z,100846.31
2022-12-09T23:24:27.370Z,100857.25
2022-12-09T23:26:55.916Z,100855.38
2022-12-09T23:29:23.342Z,100843.75
2022-12-09T23:31:50.044Z,100847.53
2022-12-09T23:34:16.983Z,100852.16
2022-12-09T23:36:44.817Z,100853.56
2022-12-09T23:39:15.155Z,100854.03
2022-12-09T23:41:43.468Z,100853.38
2022-12-09T23:44:19.129Z,100850.84
2022-12-09T23:46:46.783Z,100847.44
2022-12-09T23:49:13.967Z,100854.63
2022-12-09T23:51:41.864Z,100853.94
2022-12-09T23:54:09.571Z,100852.91
2022-12-09T23:56:39.966Z,100845.94
2022-12-09T23:59:08.598Z,100847.00
